NORTHEAST SUFFOLK  -  Rip Current Statement Rip Current Statement        NORTHERN NASSAU  -  Rip Current Statement Rip Current Statement        NORTHERN QUEENS  -  Rip Current Statement Rip Current Statement        NORTHWEST SUFFOLK  -  Rip Current Statement Rip Current Statement        SOUTHEAST SUFFOLK  -  Rip Current Statement Rip Current Statement        SOUTHERN NASSAU  -  Rip Current Statement Rip Current Statement        SOUTHERN QUEENS  -  Rip Current Statement Rip Current Statement        SOUTHWEST SUFFOLK  -  Rip Current Statement Rip Current Statement      

Active alerts

Northern Queens
  Details for Northern Queens Rip Current Statement
Southern Queens
  Details for Southern Queens Rip Current Statement
Northern Nassau
  Details for Northern Nassau Rip Current Statement
Southern Nassau
  Details for Southern Nassau Rip Current Statement
Northwest Suffolk
  Details for Northwest Suffolk Rip Current Statement
Southwest Suffolk
  Details for Southwest Suffolk Rip Current Statement
Northeast Suffolk
  Details for Northeast Suffolk Rip Current Statement
Southeast Suffolk
  Details for Southeast Suffolk Rip Current Statement


WXM80 ListenWXM80 Stop

You find our weather info also at:

UK Metoffice

WeatherCloud

Weather Underground

Northeastern Weather Network

AWEKAS

Citizen Weather Observer Program (CWOP)

HAMweather, WeatherForYou, PWS Weather


Weather Underground History page Text

Daily Summary for September 5, 2017 Units:  Metric    English   Both
« Previous Day
Next Day »
Daily Weekly Monthly Yearly Custom
  High: Low: Average:
Temperature: 30.1 °C 20.6 °C 24.2 °C
Dew Point: 23.2 °C 18.1 °C 20.7 °C
Humidity: 93 % 63 % 82 %
Wind Speed: 11.3 km/h 0 km/h 2.7 km/h
Wind Gust: 29 km/h - -
Wind:- - SSW
Pressure: 1009 hPa 1004.6 hPa -
Precipitation: 0 mm    
Historical Graphs
 
 
Tabular Data for September 5, 2017
Time Temperature Dew Point Pressure Wind Wind Speed Wind Gust Humidity Rainfall Rate (Hourly)
00:00 20.6 °C 18.1 °C 1009 hPa SSE 0.6 km/h 5.6 km/h 86 % 0 mm
00:05 20.6 °C 18.1 °C 1008.7 hPa South 1.9 km/h 5.6 km/h 86 % 0 mm
00:10 20.6 °C 18.1 °C 1008.7 hPa SW 2.7 km/h 5.6 km/h 86 % 0 mm
00:15 20.6 °C 18.1 °C 1008.7 hPa South 0.5 km/h 3.7 km/h 86 % 0 mm
00:20 20.6 °C 18.1 °C 1008.7 hPa SSE 0.6 km/h 1.9 km/h 86 % 0 mm
00:25 20.6 °C 18.2 °C 1008.7 hPa South 0.6 km/h 5.6 km/h 86 % 0 mm
00:30 20.6 °C 18.2 °C 1008.7 hPa SE 2.4 km/h 5.6 km/h 86 % 0 mm
00:35 20.6 °C 18.4 °C 1008.7 hPa South 2.3 km/h 5.6 km/h 87 % 0 mm
00:40 20.6 °C 18.4 °C 1008.7 hPa South 1.4 km/h 5.6 km/h 87 % 0 mm
00:45 20.7 °C 18.4 °C 1008.7 hPa South 3.5 km/h 4.8 km/h 87 % 0 mm
00:50 20.7 °C 18.4 °C 1008.7 hPa SSE 1.6 km/h 4.8 km/h 87 % 0 mm
00:55 20.7 °C 18.5 °C 1008.7 hPa SSE 1.8 km/h 5.6 km/h 87 % 0 mm
01:00 20.7 °C 18.5 °C 1008.7 hPa SSW 2.3 km/h 7.4 km/h 87 % 0 mm
01:06 20.7 °C 18.5 °C 1008.7 hPa SSW 1.6 km/h 8 km/h 87 % 0 mm
01:11 20.7 °C 18.5 °C 1008.7 hPa SSW 1.6 km/h 6.4 km/h 87 % 0 mm
01:16 20.7 °C 18.5 °C 1008.4 hPa South 1.6 km/h 6.4 km/h 87 % 0 mm
01:21 20.7 °C 18.5 °C 1008.4 hPa SSW 2.3 km/h 5.6 km/h 87 % 0 mm
01:26 20.7 °C 18.5 °C 1008.4 hPa SSW 1.6 km/h 11.3 km/h 87 % 0 mm
01:31 20.7 °C 18.5 °C 1008.4 hPa SSW 1.6 km/h 8 km/h 87 % 0 mm
01:35 20.7 °C 18.5 °C 1008.4 hPa SSW 4.3 km/h 5.6 km/h 87 % 0 mm
01:41 20.8 °C 18.6 °C 1008.4 hPa SSW 1.6 km/h 6.4 km/h 87 % 0 mm
01:46 20.8 °C 18.7 °C 1008 hPa South 1.6 km/h 9.3 km/h 88 % 0 mm
01:51 20.8 °C 18.8 °C 1008 hPa South 1.6 km/h 8 km/h 88 % 0 mm
01:56 20.9 °C 18.8 °C 1008 hPa South 1.6 km/h 6.4 km/h 88 % 0 mm
02:01 20.9 °C 18.9 °C 1008 hPa SSW 0.6 km/h 5.6 km/h 88 % 0 mm
02:06 20.9 °C 19.1 °C 1008 hPa SSW 3.2 km/h 8 km/h 89 % 0 mm
02:11 20.9 °C 19.1 °C 1008.4 hPa South 1.6 km/h 8 km/h 89 % 0 mm
02:14 20.9 °C 19.1 °C 1008.4 hPa SSW 2.4 km/h 9.3 km/h 89 % 0 mm
02:19 20.9 °C 19.2 °C 1008.4 hPa SSE 4.5 km/h 9.7 km/h 90 % 0 mm
02:24 21 °C 19.3 °C 1008 hPa South 3.7 km/h 5.6 km/h 90 % 0 mm
02:29 21 °C 19.3 °C 1008 hPa SSW 1.4 km/h 5.6 km/h 90 % 0 mm
02:35 21.1 °C 19.3 °C 1008 hPa ESE 2.9 km/h 5.6 km/h 90 % 0 mm
02:40 21.1 °C 19.3 °C 1008 hPa ESE 2.1 km/h 5.6 km/h 90 % 0 mm
02:45 21.1 °C 19.6 °C 1008 hPa SSE 4.8 km/h 18.5 km/h 91 % 0 mm
02:50 21.1 °C 19.4 °C 1008 hPa South 2.4 km/h 5.6 km/h 90 % 0 mm
02:55 21.1 °C 19.6 °C 1007.7 hPa South 1.9 km/h 5.6 km/h 91 % 0 mm
03:00 21.2 °C 19.6 °C 1007.7 hPa SW 6.1 km/h 18.5 km/h 91 % 0 mm
03:05 21.2 °C 19.6 °C 1007.7 hPa South 0.5 km/h 3.7 km/h 91 % 0 mm
03:10 21.2 °C 19.6 °C 1007.7 hPa SSE 3.9 km/h 6.4 km/h 91 % 0 mm
03:15 21.2 °C 19.6 °C 1007.7 hPa NW 4.8 km/h 7.4 km/h 91 % 0 mm
03:20 21.2 °C 19.7 °C 1007.7 hPa SSW 4.5 km/h 14.8 km/h 91 % 0 mm
03:25 21.2 °C 19.7 °C 1007.7 hPa SSW 2.7 km/h 5.6 km/h 91 % 0 mm
03:30 21.2 °C 19.7 °C 1007.7 hPa SSW 2.6 km/h 5.6 km/h 91 % 0 mm
03:35 21.2 °C 19.7 °C 1007.7 hPa SSW 4.5 km/h 9.3 km/h 91 % 0 mm
03:36 21.2 °C 19.7 °C 1007.7 hPa SSW 4 km/h 11.1 km/h 91 % 0 mm
03:41 21.2 °C 19.7 °C 1007.7 hPa SSW 4.7 km/h 16.7 km/h 91 % 0 mm
03:46 21.2 °C 19.9 °C 1007.7 hPa SSW 3.1 km/h 11.1 km/h 92 % 0 mm
03:51 21.3 °C 19.9 °C 1007.7 hPa SSW 1.4 km/h 6.4 km/h 92 % 0 mm
03:56 21.2 °C 19.9 °C 1007.7 hPa WSW 2.9 km/h 7.4 km/h 92 % 0 mm
04:01 21.3 °C 19.9 °C 1007.7 hPa SSW 3.7 km/h 9.3 km/h 92 % 0 mm
04:06 21.2 °C 19.9 °C 1007.7 hPa SW 2.7 km/h 5.6 km/h 92 % 0 mm
04:11 21.2 °C 19.9 °C 1007.3 hPa SW 3.9 km/h 7.4 km/h 92 % 0 mm
04:16 21.2 °C 19.9 °C 1007.3 hPa SSW 4 km/h 6.4 km/h 92 % 0 mm
04:21 21.2 °C 19.9 °C 1007.7 hPa SSW 1.9 km/h 5.6 km/h 92 % 0 mm
04:26 21.2 °C 19.9 °C 1007.3 hPa NNE 6 km/h 11.1 km/h 92 % 0 mm
04:31 21.2 °C 19.9 °C 1007.3 hPa SSW 3.4 km/h 5.6 km/h 92 % 0 mm
04:36 21.3 °C 19.9 °C 1007.3 hPa SSW 4.2 km/h 5.6 km/h 92 % 0 mm
04:41 21.3 °C 19.9 °C 1007.3 hPa SSW 5 km/h 5.6 km/h 92 % 0 mm
04:46 21.3 °C 19.9 °C 1007.3 hPa SSW 2.9 km/h 8 km/h 92 % 0 mm
04:51 21.3 °C 19.9 °C 1007.3 hPa SSW 3.4 km/h 5.6 km/h 92 % 0 mm
04:56 21.3 °C 19.9 °C 1007.3 hPa SSW 5.1 km/h 11.1 km/h 92 % 0 mm
05:01 21.3 °C 19.9 °C 1007.3 hPa SW 7.9 km/h 14.8 km/h 92 % 0 mm
05:06 21.3 °C 19.9 °C 1007.3 hPa South 5 km/h 11.1 km/h 92 % 0 mm
05:11 21.3 °C 19.9 °C 1007.3 hPa SW 3.7 km/h 7.4 km/h 92 % 0 mm
05:16 21.2 °C 19.9 °C 1007.3 hPa SSW 1.6 km/h 5.6 km/h 92 % 0 mm
05:21 21.2 °C 19.9 °C 1007.3 hPa West 1.9 km/h 5.6 km/h 92 % 0 mm
05:26 21.2 °C 19.8 °C 1007.7 hPa Calm   5.6 km/h 92 % 0 mm
05:30 21.2 °C 19.8 °C 1007.7 hPa WSW 2.9 km/h 9.3 km/h 92 % 0 mm
05:35 21.2 °C 19.8 °C 1007.7 hPa WSW 1.4 km/h 5.6 km/h 92 % 0 mm
05:40 21.1 °C 19.8 °C 1007.7 hPa WSW 0.2 km/h 1.9 km/h 92 % 0 mm
05:45 21.1 °C 19.8 °C 1007.7 hPa WSW 5.8 km/h 11.1 km/h 92 % 0 mm
05:50 21.1 °C 19.8 °C 1007.7 hPa WSW 1.8 km/h 3.7 km/h 92 % 0 mm
05:55 21.1 °C 19.7 °C 1007.7 hPa Calm   7.4 km/h 92 % 0 mm
06:00 21.1 °C 19.7 °C 1007.7 hPa SW 2.3 km/h 3.7 km/h 92 % 0 mm
06:05 21.1 °C 19.7 °C 1008 hPa SW 3.4 km/h 5.6 km/h 92 % 0 mm
06:10 21 °C 19.7 °C 1007.7 hPa WSW 0.8 km/h 5.6 km/h 92 % 0 mm
06:15 21 °C 19.7 °C 1007.7 hPa Calm   3.2 km/h 92 % 0 mm
06:20 20.9 °C 19.6 °C 1007.7 hPa SW 1.6 km/h 4.8 km/h 92 % 0 mm
06:26 20.9 °C 19.6 °C 1008 hPa SW 1.6 km/h 6.4 km/h 92 % 0 mm
06:31 20.9 °C 19.6 °C 1008 hPa SW 1.6 km/h 6.4 km/h 92 % 0 mm
06:35 20.9 °C 19.6 °C 1008 hPa Calm   6.4 km/h 92 % 0 mm
06:40 20.9 °C 19.7 °C 1008 hPa Calm   1.6 km/h 93 % 0 mm
06:45 20.9 °C 19.7 °C 1008 hPa Calm   4.8 km/h 93 % 0 mm
06:50 20.9 °C 19.7 °C 1008 hPa Calm   3.2 km/h 93 % 0 mm
06:55 20.9 °C 19.7 °C 1007.7 hPa SW 0.6 km/h 3.7 km/h 93 % 0 mm
07:00 20.9 °C 19.7 °C 1007.7 hPa SW 1.3 km/h 5.6 km/h 93 % 0 mm
07:05 20.9 °C 19.7 °C 1007.7 hPa SW 1.6 km/h 6.4 km/h 93 % 0 mm
07:11 20.9 °C 19.8 °C 1007.7 hPa SW 3.2 km/h 9.7 km/h 93 % 0 mm
07:16 20.9 °C 19.8 °C 1007.7 hPa SW 1.6 km/h 12.9 km/h 93 % 0 mm
07:21 20.9 °C 19.8 °C 1007.7 hPa SW 3.2 km/h 6.4 km/h 93 % 0 mm
07:26 21 °C 19.7 °C 1007.7 hPa SW 3.2 km/h 6.4 km/h 92 % 0 mm
07:30 21 °C 19.7 °C 1007.7 hPa SW 3.2 km/h 11.3 km/h 92 % 0 mm
07:35 21.1 °C 19.7 °C 1007.7 hPa SW 3.2 km/h 6.4 km/h 92 % 0 mm
07:41 21.1 °C 19.8 °C 1007.7 hPa SW 3.2 km/h 11.3 km/h 92 % 0 mm
07:46 21.2 °C 19.8 °C 1007.7 hPa SW 2.7 km/h 3.7 km/h 92 % 0 mm
07:51 21.3 °C 19.9 °C 1007.7 hPa SW 4.8 km/h 9.7 km/h 92 % 0 mm
07:56 21.3 °C 20 °C 1007.7 hPa SSW 1.6 km/h 9.7 km/h 92 % 0 mm
08:01 21.4 °C 20.1 °C 1008 hPa SSE 0.8 km/h 5.6 km/h 92 % 0 mm
08:06 21.6 °C 20 °C 1007.7 hPa SW 5 km/h 11.1 km/h 91 % 0 mm
08:11 21.7 °C 20.1 °C 1007.7 hPa SSW 7.7 km/h 13 km/h 91 % 0 mm
08:16 21.8 °C 20.1 °C 1007.7 hPa SW 7.6 km/h 9.7 km/h 90 % 0 mm
08:21 21.9 °C 20.2 °C 1007.7 hPa SW 6.1 km/h 11.1 km/h 90 % 0 mm
08:26 22.1 °C 20.2 °C 1007.7 hPa SSW 4.8 km/h 9.7 km/h 89 % 0 mm
08:31 22.2 °C 20.1 °C 1007.7 hPa SW 2.7 km/h 7.4 km/h 88 % 0 mm
08:36 22.3 °C 20.2 °C 1007.7 hPa WSW 2.6 km/h 9.7 km/h 88 % 0 mm
08:41 22.4 °C 20.3 °C 1007.7 hPa SW 4 km/h 5.6 km/h 88 % 0 mm
08:46 22.6 °C 20.5 °C 1007.7 hPa SSW 3.1 km/h 5.6 km/h 88 % 0 mm
08:52 22.7 °C 20.4 °C 1007.7 hPa WSW 2.3 km/h 9.3 km/h 87 % 0 mm
08:57 22.9 °C 20.6 °C 1007.7 hPa WSW 0.8 km/h 7.4 km/h 87 % 0 mm
09:02 23 °C 20.7 °C 1007.7 hPa SW 0.2 km/h 5.6 km/h 87 % 0 mm
09:07 23.2 °C 20.7 °C 1007.7 hPa SW 4.8 km/h 5.6 km/h 86 % 0 mm
09:12 23.3 °C 20.6 °C 1007.7 hPa SW 2.3 km/h 5.6 km/h 85 % 0 mm
09:17 23.4 °C 20.9 °C 1007.7 hPa WSW 0.6 km/h 5.6 km/h 86 % 0 mm
09:22 23.5 °C 20.8 °C 1007.7 hPa SW 1.6 km/h 5.6 km/h 85 % 0 mm
09:27 23.7 °C 20.8 °C 1007.7 hPa SW 1.4 km/h 5.6 km/h 84 % 0 mm
09:32 23.7 °C 20.8 °C 1007.7 hPa West 3.5 km/h 5.6 km/h 84 % 0 mm
09:37 23.9 °C 21 °C 1007.7 hPa SSW 3.5 km/h 7.4 km/h 84 % 0 mm
09:42 24.1 °C 21 °C 1008 hPa WSW 1.1 km/h 7.4 km/h 83 % 0 mm
09:47 24.3 °C 21.3 °C 1008 hPa Calm   1.9 km/h 83 % 0 mm
09:52 24.8 °C 21.1 °C 1007.7 hPa SSW 0.8 km/h 5.6 km/h 80 % 0 mm
09:57 25.2 °C 21.4 °C 1007.7 hPa Calm   1.9 km/h 80 % 0 mm
10:02 25.4 °C 21.3 °C 1007.7 hPa ESE 0.5 km/h 3.7 km/h 78 % 0 mm
10:07 25.6 °C 21.5 °C 1007.7 hPa WSW 1.3 km/h 3.2 km/h 78 % 0 mm
10:12 25.7 °C 21.4 °C 1007.7 hPa SW 2.3 km/h 5.6 km/h 77 % 0 mm
10:17 25.8 °C 21.4 °C 1007.7 hPa SW 1.8 km/h 5.6 km/h 77 % 0 mm
10:22 25.8 °C 21.3 °C 1007.7 hPa SW 2.4 km/h 6.4 km/h 76 % 0 mm
10:27 25.8 °C 21.1 °C 1007.7 hPa SW 2.9 km/h 5.6 km/h 75 % 0 mm
10:32 25.9 °C 21.3 °C 1007.3 hPa WSW 6.1 km/h 7.4 km/h 76 % 0 mm
10:37 25.9 °C 21.4 °C 1007.3 hPa SE 0.8 km/h 9.3 km/h 76 % 0 mm
10:43 26 °C 21.4 °C 1007.3 hPa SSE 3.5 km/h 7.4 km/h 76 % 0 mm
10:48 26.1 °C 21.5 °C 1007.7 hPa East 1.6 km/h 5.6 km/h 76 % 0 mm
10:53 26.2 °C 21.4 °C 1007.3 hPa WSW 5.3 km/h 13 km/h 75 % 0 mm
10:58 26.4 °C 21.6 °C 1007.3 hPa SE 1.3 km/h 5.6 km/h 75 % 0 mm
11:03 26.7 °C 21.7 °C 1007.3 hPa WSW 5.6 km/h 9.3 km/h 74 % 0 mm
11:08 27 °C 21.7 °C 1007.3 hPa South 4.2 km/h 6.4 km/h 73 % 0 mm
11:13 27.3 °C 21.8 °C 1007.3 hPa South 1.6 km/h 5.6 km/h 72 % 0 mm
11:18 27.7 °C 21.8 °C 1007.3 hPa SSE 1.6 km/h 5.6 km/h 70 % 0 mm
11:23 28 °C 21.8 °C 1007.3 hPa SSW 0.5 km/h 3.7 km/h 69 % 0 mm
11:28 28.3 °C 22.1 °C 1007.3 hPa South 0.3 km/h 1.9 km/h 69 % 0 mm
11:33 28.6 °C 22.1 °C 1007.3 hPa SW 1.4 km/h 6.4 km/h 68 % 0 mm
11:38 28.8 °C 22.6 °C 1007.3 hPa South 3.7 km/h 9.3 km/h 69 % 0 mm
11:43 29.1 °C 22.3 °C 1007.3 hPa SE 1.9 km/h 7.4 km/h 67 % 0 mm
11:48 29.4 °C 22.2 °C 1007.3 hPa SE 1.6 km/h 5.6 km/h 65 % 0 mm
11:53 29.4 °C 21.9 °C 1007.3 hPa SSE 6.3 km/h 11.1 km/h 64 % 0 mm
11:58 29.3 °C 21.8 °C 1007.3 hPa SE 6.6 km/h 13 km/h 64 % 0 mm
12:03 29.2 °C 22.2 °C 1007 hPa SSW 2.7 km/h 9.3 km/h 66 % 0 mm
12:08 29.4 °C 21.9 °C 1007 hPa SE 2.6 km/h 11.1 km/h 64 % 0 mm
12:13 29.3 °C 21.8 °C 1007 hPa SSW 5.5 km/h 11.1 km/h 64 % 0 mm
12:18 29.4 °C 23.2 °C 1007 hPa SW 1.8 km/h 5.6 km/h 69 % 0 mm
12:23 29.7 °C 22.4 °C 1006.7 hPa South 1.1 km/h 7.4 km/h 65 % 0 mm
12:28 29.9 °C 22.8 °C 1006.7 hPa SSW 4 km/h 4.8 km/h 66 % 0 mm
12:33 30.1 °C 22.5 °C 1006.7 hPa SSE 1.8 km/h 8 km/h 64 % 0 mm
12:38 29.8 °C 22 °C 1006.7 hPa SE 1.4 km/h 5.6 km/h 63 % 0 mm
12:43 29.6 °C 22 °C 1006.7 hPa SE 7.7 km/h 17.7 km/h 64 % 0 mm
12:44 29.6 °C 22 °C 1006.7 hPa SSE 7.2 km/h 18.5 km/h 64 % 0 mm
12:49 29.3 °C 22.3 °C 1006.7 hPa SE 6.9 km/h 11.3 km/h 66 % 0 mm
12:54 28.9 °C 21.9 °C 1006.3 hPa SSE 6 km/h 13 km/h 66 % 0 mm
12:59 28.9 °C 22.9 °C 1006.3 hPa South 3.1 km/h 5.6 km/h 70 % 0 mm
13:04 29 °C 22 °C 1006.3 hPa South 3.2 km/h 9.3 km/h 66 % 0 mm
13:09 28.8 °C 22.1 °C 1006.3 hPa South 3.5 km/h 7.4 km/h 67 % 0 mm
13:14 28.9 °C 22.6 °C 1006.3 hPa SSW 2.9 km/h 5.6 km/h 69 % 0 mm
13:19 29.1 °C 22.1 °C 1006.3 hPa SSE 2.6 km/h 9.3 km/h 66 % 0 mm
13:24 29.3 °C 22.5 °C 1006.3 hPa South 1.8 km/h 5.6 km/h 67 % 0 mm
13:29 29.4 °C 22.4 °C 1006.3 hPa South 1.3 km/h 4.8 km/h 66 % 0 mm
13:34 29.6 °C 23 °C 1006.3 hPa SSW 1.6 km/h 5.6 km/h 68 % 0 mm
13:40 29.4 °C 22.4 °C 1006.3 hPa SSW 4.2 km/h 5.6 km/h 66 % 0 mm
13:45 29.4 °C 22.2 °C 1006.3 hPa SE 1.8 km/h 11.1 km/h 65 % 0 mm
13:50 29.3 °C 22 °C 1006.3 hPa SSW 1.8 km/h 9.3 km/h 65 % 0 mm
13:55 29.2 °C 22.2 °C 1006 hPa South 1.6 km/h 5.6 km/h 66 % 0 mm
14:00 29.2 °C 22.4 °C 1006 hPa ESE 1.9 km/h 6.4 km/h 67 % 0 mm
14:05 29.3 °C 22.3 °C 1006 hPa SSW 3.5 km/h 8 km/h 66 % 0 mm
14:10 29.1 °C 22.1 °C 1005.6 hPa South 5 km/h 13 km/h 66 % 0 mm
14:15 29.1 °C 22.1 °C 1005.6 hPa SE 4.5 km/h 11.1 km/h 66 % 0 mm
14:20 29 °C 22 °C 1005.6 hPa WSW 3.5 km/h 9.7 km/h 66 % 0 mm
14:25 29.1 °C 22.3 °C 1005.6 hPa SSE 1.4 km/h 5.6 km/h 67 % 0 mm
14:30 29.1 °C 22.3 °C 1005.6 hPa SE 2.7 km/h 11.1 km/h 67 % 0 mm
14:35 29.2 °C 22.7 °C 1005.3 hPa SSE 3.1 km/h 13 km/h 68 % 0 mm
14:40 29.1 °C 22.1 °C 1005.3 hPa SW 5.6 km/h 16.7 km/h 66 % 0 mm
14:45 28.9 °C 22.2 °C 1005.3 hPa SE 2.9 km/h 18.5 km/h 67 % 0 mm
14:50 28.9 °C 22.6 °C 1005.3 hPa SSW 2.6 km/h 9.3 km/h 69 % 0 mm
14:55 29.1 °C 22.6 °C 1005 hPa South 1.1 km/h 9.3 km/h 68 % 0 mm
15:00 29.2 °C 22.7 °C 1005.3 hPa SSW 4.2 km/h 9.3 km/h 68 % 0 mm
15:05 29.3 °C 22.8 °C 1005.3 hPa SSW 5.5 km/h 7.4 km/h 68 % 0 mm
15:10 29.5 °C 22.9 °C 1005 hPa SSE 6.1 km/h 8 km/h 68 % 0 mm
15:15 29.6 °C 22.6 °C 1005.3 hPa SW 3.7 km/h 7.4 km/h 66 % 0 mm
15:20 29.7 °C 22.6 °C 1005.3 hPa South 6.6 km/h 11.1 km/h 66 % 0 mm
15:26 29.7 °C 22.4 °C 1005.3 hPa SSE 5.6 km/h 14.8 km/h 65 % 0 mm
15:31 29.6 °C 22.3 °C 1005.3 hPa SSW 3.2 km/h 12.9 km/h 65 % 0 mm
15:36 29.4 °C 22.2 °C 1005.3 hPa South 3.2 km/h 12.9 km/h 65 % 0 mm
15:41 29.3 °C 22 °C 1005.3 hPa South 3.2 km/h 9.7 km/h 65 % 0 mm
15:46 29 °C 22 °C 1005.3 hPa South 1.6 km/h 11.3 km/h 66 % 0 mm
15:51 28.9 °C 22.2 °C 1005.3 hPa SSE 3.2 km/h 12.9 km/h 67 % 0 mm
15:56 28.8 °C 21.8 °C 1005.3 hPa SSE 3.2 km/h 8 km/h 66 % 0 mm
16:01 28.6 °C 21.8 °C 1005.3 hPa SSE 4.8 km/h 11.1 km/h 67 % 0 mm
16:06 28.6 °C 21.8 °C 1005.3 hPa South 5 km/h 6.4 km/h 67 % 0 mm
16:11 28.5 °C 22 °C 1005.3 hPa SSW 3.2 km/h 13 km/h 68 % 0 mm
16:16 28.4 °C 21.9 °C 1005.3 hPa SE 6.9 km/h 11.3 km/h 68 % 0 mm
16:21 28.3 °C 21.6 °C 1005.3 hPa SE 6.6 km/h 14.8 km/h 67 % 0 mm
16:26 28.3 °C 21.8 °C 1005 hPa SSW 3.1 km/h 5.6 km/h 68 % 0 mm
16:31 28.3 °C 21.8 °C 1005 hPa SE 2.6 km/h 9.3 km/h 68 % 0 mm
16:36 28.3 °C 21.8 °C 1005 hPa South 1 km/h 3.7 km/h 68 % 0 mm
16:41 28.2 °C 21.9 °C 1005 hPa SSE 1.6 km/h 4.8 km/h 69 % 0 mm
16:46 28 °C 21.6 °C 1005 hPa SSE 3.2 km/h 18.5 km/h 68 % 0 mm
16:51 27.8 °C 21.6 °C 1005 hPa SSW 4.7 km/h 11.1 km/h 69 % 0 mm
16:56 27.8 °C 21.6 °C 1005 hPa SSE 0.6 km/h 3.7 km/h 69 % 0 mm
17:01 27.8 °C 21.8 °C 1004.6 hPa South 3.9 km/h 13 km/h 70 % 0 mm
17:06 27.7 °C 21.7 °C 1004.6 hPa South 7.2 km/h 14.8 km/h 70 % 0 mm
17:11 27.6 °C 21.6 °C 1004.6 hPa West 3.1 km/h 5.6 km/h 70 % 0 mm
17:16 27.4 °C 21.5 °C 1004.6 hPa SSW 6.8 km/h 11.3 km/h 70 % 0 mm
17:21 27.2 °C 21.3 °C 1004.6 hPa SE 3.2 km/h 13 km/h 70 % 0 mm
17:26 27.1 °C 21.3 °C 1004.6 hPa South 5.8 km/h 13 km/h 71 % 0 mm
17:32 26.9 °C 21.4 °C 1004.6 hPa SSW 4.3 km/h 11.1 km/h 72 % 0 mm
17:37 26.8 °C 21.3 °C 1005 hPa SSW 6.9 km/h 14.8 km/h 72 % 0 mm
17:42 26.7 °C 21.2 °C 1005 hPa SSW 3.7 km/h 14.8 km/h 72 % 0 mm
17:47 26.6 °C 21.4 °C 1005 hPa SSE 1.3 km/h 7.4 km/h 73 % 0 mm
17:52 26.4 °C 21.2 °C 1005.3 hPa SSW 6.3 km/h 11.1 km/h 73 % 0 mm
17:57 26.3 °C 21.1 °C 1005.3 hPa SSE 4.2 km/h 14.8 km/h 73 % 0 mm
18:02 26.2 °C 21.2 °C 1005.3 hPa South 5.3 km/h 18.5 km/h 74 % 0 mm
18:07 26.1 °C 21.3 °C 1005.3 hPa SE 3.4 km/h 5.6 km/h 75 % 0 mm
18:12 25.9 °C 21.2 °C 1005.3 hPa South 4.7 km/h 8 km/h 75 % 0 mm
18:17 25.8 °C 21.2 °C 1005.6 hPa SSW 4 km/h 9.3 km/h 76 % 0 mm
18:22 25.7 °C 21.3 °C 1005.6 hPa SE 5.6 km/h 20.4 km/h 77 % 0 mm
18:27 25.5 °C 21.2 °C 1006 hPa SSW 4 km/h 8 km/h 77 % 0 mm
18:32 25.3 °C 21.2 °C 1006 hPa SE 3.2 km/h 7.4 km/h 78 % 0 mm
18:37 25.2 °C 21.3 °C 1006 hPa SSW 2.3 km/h 9.3 km/h 79 % 0 mm
18:42 25 °C 21.3 °C 1006 hPa SSW 2.4 km/h 5.6 km/h 80 % 0 mm
18:47 24.9 °C 21.4 °C 1006 hPa South 0.3 km/h 5.6 km/h 81 % 0 mm
18:52 24.8 °C 21.5 °C 1006 hPa SSE 5.1 km/h 7.4 km/h 82 % 0 mm
18:57 24.7 °C 21.4 °C 1006 hPa SSW 3.5 km/h 5.6 km/h 82 % 0 mm
19:02 24.6 °C 21.5 °C 1006 hPa ESE 3.4 km/h 5.6 km/h 83 % 0 mm
19:07 24.4 °C 21.3 °C 1006 hPa SSW 2.4 km/h 7.4 km/h 83 % 0 mm
19:12 24.3 °C 21.4 °C 1006 hPa SSE 3.9 km/h 16.7 km/h 84 % 0 mm
19:17 24.2 °C 21.3 °C 1005.6 hPa South 1.1 km/h 9.3 km/h 84 % 0 mm
19:22 24.1 °C 21.2 °C 1006 hPa South 2.9 km/h 11.1 km/h 84 % 0 mm
19:27 24 °C 21.1 °C 1006 hPa SE 5 km/h 8 km/h 84 % 0 mm
19:32 23.9 °C 21.1 °C 1006 hPa SSW 5 km/h 11.1 km/h 84 % 0 mm
19:37 23.8 °C 21.2 °C 1006 hPa SSE 0.6 km/h 7.4 km/h 85 % 0 mm
19:42 23.8 °C 21.2 °C 1006.3 hPa South 4 km/h 7.4 km/h 85 % 0 mm
19:47 23.8 °C 21.1 °C 1006.3 hPa SSE 3.1 km/h 7.4 km/h 85 % 0 mm
19:52 23.8 °C 21.1 °C 1006.7 hPa SW 4 km/h 7.4 km/h 85 % 0 mm
19:57 23.8 °C 21.1 °C 1006.7 hPa SSE 1 km/h 5.6 km/h 85 % 0 mm
20:02 23.8 °C 21.1 °C 1006.7 hPa South 1.6 km/h 5.6 km/h 85 % 0 mm
20:07 23.8 °C 21.1 °C 1006.7 hPa SSW 3.5 km/h 8 km/h 85 % 0 mm
20:12 23.8 °C 21.1 °C 1006.7 hPa ESE 3.4 km/h 14.8 km/h 85 % 0 mm
20:17 23.8 °C 21.3 °C 1006.7 hPa SSW 3.5 km/h 9.3 km/h 86 % 0 mm
20:22 23.8 °C 21.3 °C 1007 hPa SSW 2.7 km/h 5.6 km/h 86 % 0 mm
20:25 23.8 °C 21.3 °C 1007 hPa South 2.3 km/h 3.7 km/h 86 % 0 mm
20:30 23.8 °C 21.3 °C 1007 hPa SE 1.4 km/h 7.4 km/h 86 % 0 mm
20:35 23.7 °C 21.4 °C 1007 hPa SSW 3.4 km/h 5.6 km/h 87 % 0 mm
20:41 23.7 °C 21.4 °C 1007 hPa South 1.6 km/h 6.4 km/h 87 % 0 mm
20:46 23.7 °C 21.4 °C 1007.3 hPa SSW 1.8 km/h 5.6 km/h 87 % 0 mm
20:51 23.7 °C 21.6 °C 1007.7 hPa South 1.6 km/h 16.1 km/h 88 % 0 mm
20:56 23.7 °C 21.6 °C 1008 hPa SSW 11.3 km/h 29 km/h 88 % 0 mm
21:01 23.7 °C 21.6 °C 1008 hPa SSW 9.5 km/h 18.5 km/h 88 % 0 mm
21:06 23.6 °C 21.1 °C 1008.4 hPa WSW 11.1 km/h 20.4 km/h 86 % 0 mm
21:11 23.6 °C 20.9 °C 1008.4 hPa SSW 1.9 km/h 11.1 km/h 85 % 0 mm
21:16 23.5 °C 20.6 °C 1008.4 hPa West 0.5 km/h 7.4 km/h 84 % 0 mm
21:21 23.4 °C 20.6 °C 1008.4 hPa West 0.2 km/h   84 % 0 mm
21:26 23.4 °C 20.6 °C 1008.4 hPa Calm     84 % 0 mm
21:31 23.3 °C 20.5 °C 1008 hPa WNW 1.4 km/h 5.6 km/h 84 % 0 mm
21:36 23.2 °C 20.4 °C 1008 hPa Calm     84 % 0 mm
21:41 23.1 °C 20.3 °C 1008 hPa Calm     84 % 0 mm
21:46 23 °C 20.3 °C 1008 hPa Calm     85 % 0 mm
21:51 22.9 °C 20.4 °C 1008 hPa Calm     86 % 0 mm
21:56 22.8 °C 20.3 °C 1008 hPa Calm     86 % 0 mm
22:01 22.6 °C 20.2 °C 1008.4 hPa Calm     86 % 0 mm
22:06 22.6 °C 20.1 °C 1008.4 hPa Calm   1.9 km/h 86 % 0 mm
22:11 22.4 °C 20 °C 1008.4 hPa Calm     86 % 0 mm
22:16 22.3 °C 19.9 °C 1008.4 hPa Calm     86 % 0 mm
22:21 22.2 °C 19.8 °C 1008.4 hPa Calm     86 % 0 mm
22:26 22.1 °C 19.7 °C 1008.4 hPa Calm     86 % 0 mm
22:31 22 °C 19.7 °C 1008.4 hPa Calm     87 % 0 mm
22:36 21.9 °C 19.7 °C 1008 hPa Calm     87 % 0 mm
22:41 21.8 °C 19.8 °C 1008.4 hPa WNW 0.2 km/h 1.9 km/h 88 % 0 mm
22:46 21.7 °C 19.7 °C 1008 hPa Calm     88 % 0 mm
22:51 21.7 °C 19.6 °C 1008.4 hPa Calm     88 % 0 mm
22:56 21.6 °C 19.5 °C 1008.4 hPa Calm     88 % 0 mm
23:01 21.5 °C 19.4 °C 1008.4 hPa Calm     88 % 0 mm
23:06 21.4 °C 19.6 °C 1008.4 hPa Calm     89 % 0 mm
23:12 21.4 °C 19.5 °C 1008.4 hPa Calm     89 % 0 mm
23:17 21.3 °C 19.4 °C 1008.4 hPa WNW 0.3 km/h 1.9 km/h 89 % 0 mm
23:21 21.3 °C 19.4 °C 1008.4 hPa Calm   3.7 km/h 89 % 0 mm
23:27 21.2 °C 19.5 °C 1008.4 hPa Calm     90 % 0 mm
23:32 21.2 °C 19.5 °C 1008.4 hPa Calm     90 % 0 mm
23:37 21.2 °C 19.5 °C 1008 hPa Calm     90 % 0 mm
23:42 21.2 °C 19.6 °C 1008.4 hPa Calm     91 % 0 mm
23:47 21.2 °C 19.6 °C 1008 hPa WNW 0.6 km/h 1.9 km/h 91 % 0 mm
23:52 21.2 °C 19.6 °C 1008 hPa Calm     91 % 0 mm
23:57 21.1 °C 19.6 °C 1008 hPa Calm     91 % 0 mm
Crab Meadow Weather
Compliments of Weather Underground - 3 mb

Script developed by  Jim McMurry - jmcmurry@mwt.net Adapted for the template by  Wim van der Kuil - Leuven-Template.eu

Weather Terms: Funnel Cloud - A rotating column of air, extending from a towering cumulus or cumulonimbus cloud, that is not in contact with the ground.